Oberon — SKJF — position and weather

sailwx.info

Track history (hours):
 
Tides and Currents Weather Stations Pressure Air Temp Water Temp Dewpoint Dewpoint Depression Visibility Wind Speed Wind Dir Waves Ship Positions

Oberon

Last reported at 2014-Nov-29 05:33 UTC. Time now 2014-Nov-29 06:16 UTC.
Position N 53°30' E 005°10'.

Length 232 m; draft 8.7 m.

Type: Cargo ship. MMSI: 266283000.

Date/timePositionNaut miles runAvg speedWind from/ knotsBaromVisibWave heightAir tempDewpointWater temp
2014-Nov-29 05:33N 53°30' E 005°10'1211.6
2014-Nov-29 04:33N 53°26' E 004°52'1111.0
2014-Nov-29 03:33N 53°18' E 004°38'1211.7
2014-Nov-29 02:33N 53°09' E 004°28'1211.7
2014-Nov-29 01:33N 52°58' E 004°19'1212.0
2014-Nov-29 00:33N 52°47' E 004°10'1211.8
2014-Nov-28 23:33N 52°39' E 003°57'1211.7
2014-Nov-28 22:33N 52°31' E 003°44'1211.8
2014-Nov-28 21:33N 52°23' E 003°29'1211.6
2014-Nov-28 20:33N 52°14' E 003°16'1211.9
2014-Nov-28 19:33N 52°05' E 003°03'1212.4
2014-Nov-28 18:33N 51°56' E 002°50'1212.3
2014-Nov-28 17:33N 51°47' E 002°36'1212.5
2014-Nov-28 16:33N 51°38' E 002°23'1313.3
2014-Nov-28 15:33N 51°28' E 002°09'1615.8
2014-Nov-28 14:33N 51°13' E 002°00'1817.7
2014-Nov-28 13:33N 51°04' E 001°36'1818.1
2014-Nov-28 12:33N 50°48' E 001°22'2517.8
2014-Nov-28 11:11N 50°30' E 000°56'  
2014-Nov-21 05:32N 40°23' W 071°58'1818.4
2014-Nov-21 04:32N 40°23' W 072°22'5517.5
2014-Nov-21 01:22N 40°25' W 073°35'8 9.8
2014-Nov-21 00:31N 40°26' W 073°46'9 9.6
2014-Nov-20 23:33N 40°30' W 073°57'1111.1
2014-Nov-20 22:34N 40°39' W 074°05'3 2.5
2014-Nov-20 21:34N 40°40' W 074°08'2 1.5
2014-Nov-20 20:34N 40°42' W 074°09'0 0.0
2014-Nov-20 19:32N 40°42' W 074°09'0 0.0
2014-Nov-20 18:33N 40°42' W 074°09'0 0.0
2014-Nov-20 17:32N 40°42' W 074°09'0 0.0
2014-Nov-20 16:33N 40°42' W 074°09'0 0.0
2014-Nov-20 15:30N 40°42' W 074°09'0 0.0
2014-Nov-20 14:32N 40°42' W 074°09'0 0.0
2014-Nov-20 13:33N 40°42' W 074°09'0 0.0
2014-Nov-20 12:33N 40°42' W 074°09'0 0.0
2014-Nov-20 11:32N 40°42' W 074°09'1 0.6
2014-Nov-20 10:33N 40°41' W 074°08'5 4.9
2014-Nov-20 09:33N 40°38' W 074°03'1111.3
2014-Nov-20 08:33N 40°29' W 073°55'8 8.2
2014-Nov-20 07:33N 40°24' W 073°47'183 7.3
2014-Nov-19 06:27N 37°60' W 076°12'  
Track history (hours):
 
Tides and Currents Weather Stations Pressure Air Temp Water Temp Dewpoint Dewpoint Depression Visibility Wind Speed Wind Dir Waves Ship Positions

Oberon

Last reported at 2014-Nov-29 05:33 UTC. Time now 2014-Nov-29 06:16 UTC.
Position N 53°30' E 005°10'.

Length 232 m; draft 8.7 m.

Type: Cargo ship. MMSI: 266283000.

Date/timePositionNaut miles runAvg speedWind from/ knotsBaromVisibWave heightAir tempDewpointWater temp
2014-Nov-29 05:33N 53°30' E 005°10'1211.6
2014-Nov-29 04:33N 53°26' E 004°52'1111.0
2014-Nov-29 03:33N 53°18' E 004°38'1211.7
2014-Nov-29 02:33N 53°09' E 004°28'1211.7
2014-Nov-29 01:33N 52°58' E 004°19'1212.0
2014-Nov-29 00:33N 52°47' E 004°10'1211.8
2014-Nov-28 23:33N 52°39' E 003°57'1211.7
2014-Nov-28 22:33N 52°31' E 003°44'1211.8
2014-Nov-28 21:33N 52°23' E 003°29'1211.6
2014-Nov-28 20:33N 52°14' E 003°16'1211.9
2014-Nov-28 19:33N 52°05' E 003°03'1212.4
2014-Nov-28 18:33N 51°56' E 002°50'1212.3
2014-Nov-28 17:33N 51°47' E 002°36'1212.5
2014-Nov-28 16:33N 51°38' E 002°23'1313.3
2014-Nov-28 15:33N 51°28' E 002°09'1615.8
2014-Nov-28 14:33N 51°13' E 002°00'1817.7
2014-Nov-28 13:33N 51°04' E 001°36'1818.1
2014-Nov-28 12:33N 50°48' E 001°22'2517.8
2014-Nov-28 11:11N 50°30' E 000°56'  
2014-Nov-21 05:32N 40°23' W 071°58'1818.4
2014-Nov-21 04:32N 40°23' W 072°22'5517.5
2014-Nov-21 01:22N 40°25' W 073°35'8 9.8
2014-Nov-21 00:31N 40°26' W 073°46'9 9.6
2014-Nov-20 23:33N 40°30' W 073°57'1111.1
2014-Nov-20 22:34N 40°39' W 074°05'3 2.5
2014-Nov-20 21:34N 40°40' W 074°08'2 1.5
2014-Nov-20 20:34N 40°42' W 074°09'0 0.0
2014-Nov-20 19:32N 40°42' W 074°09'0 0.0
2014-Nov-20 18:33N 40°42' W 074°09'0 0.0
2014-Nov-20 17:32N 40°42' W 074°09'0 0.0
2014-Nov-20 16:33N 40°42' W 074°09'0 0.0
2014-Nov-20 15:30N 40°42' W 074°09'0 0.0
2014-Nov-20 14:32N 40°42' W 074°09'0 0.0
2014-Nov-20 13:33N 40°42' W 074°09'0 0.0
2014-Nov-20 12:33N 40°42' W 074°09'0 0.0
2014-Nov-20 11:32N 40°42' W 074°09'1 0.6
2014-Nov-20 10:33N 40°41' W 074°08'5 4.9
2014-Nov-20 09:33N 40°38' W 074°03'1111.3
2014-Nov-20 08:33N 40°29' W 073°55'8 8.2
2014-Nov-20 07:33N 40°24' W 073°47'183 7.3
2014-Nov-19 06:27N 37°60' W 076°12'  

Dump ship's entire track history